createdAt,value
2018-05-09T00:01:38.293Z,97418.78
2018-05-09T00:04:06.539Z,97420.64
2018-05-09T00:06:34.781Z,97420.31
2018-05-09T00:09:03.800Z,97422.17
2018-05-09T00:11:32.037Z,97417.07
2018-05-09T00:14:01.051Z,97414.81
2018-05-09T00:16:29.293Z,97416.58
2018-05-09T00:18:57.548Z,97418.94
2018-05-09T00:21:25.795Z,97423.79
2018-05-09T00:23:54.047Z,97420.03
2018-05-09T00:26:22.290Z,97429.84
2018-05-09T00:28:50.545Z,97427.98
2018-05-09T00:31:18.795Z,97425.62
2018-05-09T00:33:47.046Z,97429.56
2018-05-09T00:36:16.055Z,97428.96
2018-05-09T00:38:44.302Z,97430.88
2018-05-09T00:41:13.308Z,97424.22
2018-05-09T00:43:41.563Z,97416.45
2018-05-09T00:46:10.572Z,97416.36
2018-05-09T00:48:39.590Z,97425.02
2018-05-09T00:51:07.824Z,97412.36
2018-05-09T00:53:36.068Z,97412.18
2018-05-09T00:56:04.320Z,97405.19
2018-05-09T00:58:32.559Z,97410.18
2018-05-09T01:01:01.586Z,97404.52
2018-05-09T01:03:29.825Z,97409.77
2018-05-09T01:05:58.834Z,97411.50
2018-05-09T01:08:27.153Z,97415.09
2018-05-09T01:10:55.329Z,97408.05
2018-05-09T01:13:23.632Z,97406.53
2018-05-09T01:15:51.823Z,97413.81
2018-05-09T01:18:20.834Z,97411.44
2018-05-09T01:20:49.088Z,97410.26
2018-05-09T01:23:18.096Z,97408.57
2018-05-09T01:25:47.109Z,97409.87
2018-05-09T01:28:15.335Z,97415.67
2018-05-09T01:30:43.588Z,97417.53
2018-05-09T01:33:11.841Z,97411.91
2018-05-09T01:35:40.096Z,97412.70
2018-05-09T01:38:08.336Z,97416.53
2018-05-09T01:40:36.583Z,97413.19
2018-05-09T01:43:04.837Z,97412.42
2018-05-09T01:45:33.071Z,97406.59
2018-05-09T01:48:02.084Z,97412.79
2018-05-09T01:50:30.325Z,97411.27
2018-05-09T01:52:58.575Z,97407.67
2018-05-09T01:55:26.818Z,97410.83
2018-05-09T01:57:55.065Z,97409.48
2018-05-09T02:00:24.074Z,97406.46
2018-05-09T02:02:52.328Z,97401.84
2018-05-09T02:05:20.567Z,97399.45
2018-05-09T02:07:48.817Z,97399.13
2018-05-09T02:10:17.057Z,97400.89
2018-05-09T02:12:45.307Z,97396.20
2018-05-09T02:15:13.563Z,97387.75
2018-05-09T02:17:41.850Z,97383.67
2018-05-09T02:20:10.055Z,97384.63
2018-05-09T02:22:38.304Z,97381.83
2018-05-09T02:25:06.542Z,97387.63
2018-05-09T02:27:34.787Z,97391.54
2018-05-09T02:30:03.795Z,97398.19
2018-05-09T02:32:32.039Z,97393.63
2018-05-09T02:35:00.294Z,97390.02
2018-05-09T02:37:28.533Z,97388.20
2018-05-09T02:39:56.786Z,97388.68
2018-05-09T02:42:25.795Z,97385.01
2018-05-09T02:44:54.048Z,97387.67
2018-05-09T02:47:23.055Z,97372.80
2018-05-09T02:49:52.153Z,97378.05
2018-05-09T02:52:20.308Z,97380.66
2018-05-09T02:54:48.563Z,97390.47
2018-05-09T02:57:16.806Z,97388.45
2018-05-09T02:59:45.055Z,97386.91
2018-05-09T03:02:13.300Z,97385.16
2018-05-09T03:04:41.559Z,97388.66
2018-05-09T03:07:09.803Z,97385.45
2018-05-09T03:09:38.043Z,97379.22
2018-05-09T03:12:07.061Z,97382.27
2018-05-09T03:14:35.309Z,97380.23
2018-05-09T03:17:04.320Z,97377.35
2018-05-09T03:19:32.557Z,97384.24
2018-05-09T03:22:00.799Z,97383.05
2018-05-09T03:24:29.044Z,97371.71
2018-05-09T03:26:57.291Z,97373.02
2018-05-09T03:29:25.607Z,97373.89
2018-05-09T03:31:53.785Z,97374.31
2018-05-09T03:34:22.023Z,97376.80
2018-05-09T03:36:51.036Z,97383.06
2018-05-09T03:39:19.290Z,97386.05
2018-05-09T03:41:47.532Z,97375.35
2018-05-09T03:44:15.783Z,97373.53
2018-05-09T03:46:44.023Z,97380.31
2018-05-09T03:49:13.027Z,97386.37
2018-05-09T03:51:42.049Z,97389.75
2018-05-09T03:54:10.283Z,97381.93
2018-05-09T03:56:39.287Z,97385.70
2018-05-09T03:59:07.539Z,97391.70
2018-05-09T04:01:53.571Z,97387.22
2018-05-09T04:04:39.691Z,97388.14
2018-05-09T04:07:25.680Z,97393.63
2018-05-09T04:09:55.511Z,97388.56
2018-05-09T04:12:23.760Z,97392.70
2018-05-09T04:14:52.097Z,97390.14
2018-05-09T04:17:21.020Z,97392.20
2018-05-09T04:19:49.268Z,97396.16
2018-05-09T04:22:18.266Z,97398.09
2018-05-09T04:24:46.511Z,97389.96
2018-05-09T04:27:14.760Z,97389.47
2018-05-09T04:29:43.009Z,97387.29
2018-05-09T04:32:11.255Z,97384.10
2018-05-09T04:34:40.289Z,97387.23
2018-05-09T04:37:08.523Z,97383.27
2018-05-09T04:39:37.549Z,97388.97
2018-05-09T04:42:05.867Z,97385.89
2018-05-09T04:44:34.804Z,97383.53
2018-05-09T04:47:03.045Z,97382.98
2018-05-09T04:49:31.296Z,97387.84
2018-05-09T04:51:59.535Z,97391.57
2018-05-09T04:54:27.787Z,97387.91
2018-05-09T04:56:56.798Z,97386.20
2018-05-09T04:59:25.047Z,97385.66
2018-05-09T05:01:54.055Z,97389.75
2018-05-09T05:04:22.308Z,97383.08
2018-05-09T05:06:50.551Z,97386.59
2018-05-09T05:09:18.817Z,97394.64
2018-05-09T05:11:47.063Z,97402.33
2018-05-09T05:14:15.316Z,97398.05
2018-05-09T05:16:43.568Z,97399.94
2018-05-09T05:19:11.822Z,97399.76
2018-05-09T05:21:40.071Z,97395.94
2018-05-09T05:24:08.545Z,97395.72
2018-05-09T05:26:36.795Z,97390.64
2018-05-09T05:29:05.035Z,97394.10
2018-05-09T05:31:33.296Z,97396.06
2018-05-09T05:34:01.539Z,97398.30
2018-05-09T05:36:30.547Z,97395.39
2018-05-09T05:38:58.792Z,97395.11
2018-05-09T05:41:27.807Z,97398.16
2018-05-09T05:43:56.048Z,97399.25
2018-05-09T05:46:24.315Z,97399.84
2018-05-09T05:48:52.553Z,97396.91
2018-05-09T05:51:20.795Z,97400.05
2018-05-09T05:53:49.799Z,97392.28
2018-05-09T05:56:18.807Z,97402.77
2018-05-09T05:58:47.043Z,97399.59
2018-05-09T06:01:15.281Z,97398.72
2018-05-09T06:03:43.513Z,97394.29
2018-05-09T06:06:12.520Z,97396.96
2018-05-09T06:08:40.749Z,97403.33
2018-05-09T06:11:09.000Z,97408.56
2018-05-09T06:13:37.249Z,97403.55
2018-05-09T06:16:05.493Z,97408.31
2018-05-09T06:18:33.737Z,97405.30
2018-05-09T06:21:01.994Z,97405.88
2018-05-09T06:23:30.232Z,97414.50
2018-05-09T06:25:59.231Z,97408.89
2018-05-09T06:28:27.476Z,97402.28
2018-05-09T06:30:55.767Z,97409.75
2018-05-09T06:33:23.979Z,97411.47
2018-05-09T06:35:52.206Z,97416.36
2018-05-09T06:38:20.458Z,97422.62
2018-05-09T06:40:48.697Z,97416.19
2018-05-09T06:43:16.935Z,97423.77
2018-05-09T06:45:45.176Z,97420.45
2018-05-09T06:48:13.415Z,97425.74
2018-05-09T06:50:41.655Z,97420.77
2018-05-09T06:53:09.918Z,97419.20
2018-05-09T06:55:38.181Z,97420.66
2018-05-09T06:58:06.416Z,97417.64
2018-05-09T07:00:34.660Z,97416.31
2018-05-09T07:03:02.900Z,97414.88
2018-05-09T07:05:31.147Z,97416.31
2018-05-09T07:07:59.383Z,97415.13
2018-05-09T07:10:27.625Z,97409.79
2018-05-09T07:12:55.863Z,97418.41
2018-05-09T07:15:24.106Z,97415.66
2018-05-09T07:17:52.344Z,97416.97
2018-05-09T07:20:20.593Z,97419.41
2018-05-09T07:22:48.925Z,97413.69
2018-05-09T07:25:17.079Z,97408.74
2018-05-09T07:27:45.324Z,97412.61
2018-05-09T07:30:13.576Z,97415.61
2018-05-09T07:32:42.583Z,97412.24
2018-05-09T07:35:10.836Z,97408.77
2018-05-09T07:37:39.072Z,97408.25
2018-05-09T07:40:07.319Z,97407.52
2018-05-09T07:42:35.564Z,97411.19
2018-05-09T07:45:04.572Z,97410.72
2018-05-09T07:47:32.835Z,97413.61
2018-05-09T07:50:01.068Z,97401.94
2018-05-09T07:52:29.310Z,97400.16
2018-05-09T07:54:57.555Z,97400.63
2018-05-09T07:57:26.570Z,97397.31
2018-05-09T07:59:54.811Z,97402.66
2018-05-09T08:02:23.063Z,97402.96
2018-05-09T08:04:51.301Z,97402.41
2018-05-09T08:07:19.536Z,97410.67
2018-05-09T08:09:47.771Z,97420.84
2018-05-09T08:12:16.022Z,97419.66
2018-05-09T08:14:45.022Z,97414.14
2018-05-09T08:17:13.265Z,97414.45
2018-05-09T08:19:41.555Z,97413.41
2018-05-09T08:22:09.764Z,97414.33
2018-05-09T08:24:38.006Z,97418.06
2018-05-09T08:27:07.012Z,97411.33
2018-05-09T08:29:35.251Z,97408.55
2018-05-09T08:32:03.497Z,97406.45
2018-05-09T08:34:31.740Z,97398.58
2018-05-09T08:36:59.980Z,97399.63
2018-05-09T08:39:28.216Z,97398.64
2018-05-09T08:41:56.459Z,97393.58
2018-05-09T08:44:24.708Z,97398.16
2018-05-09T08:46:52.961Z,97394.18
2018-05-09T08:49:21.294Z,97387.20
2018-05-09T08:51:49.453Z,97387.80
2018-05-09T08:54:18.468Z,97385.23
2018-05-09T08:56:46.698Z,97385.93
2018-05-09T08:59:14.950Z,97381.20
2018-05-09T09:01:43.185Z,97388.83
2018-05-09T09:04:11.466Z,97386.48
2018-05-09T09:06:39.668Z,97384.59
2018-05-09T09:09:07.922Z,97391.66
2018-05-09T09:11:36.155Z,97391.08
2018-05-09T09:14:04.400Z,97389.69
2018-05-09T09:16:32.639Z,97383.59
2018-05-09T09:19:00.881Z,97390.01
2018-05-09T09:21:29.124Z,97385.91
2018-05-09T09:23:57.367Z,97380.36
2018-05-09T09:26:25.603Z,97380.17
2018-05-09T09:28:53.852Z,97379.59
2018-05-09T09:31:22.177Z,97380.36
2018-05-09T09:33:50.338Z,97389.23
2018-05-09T09:36:19.339Z,97384.49
2018-05-09T09:38:48.369Z,97377.53
2018-05-09T09:41:16.599Z,97371.87
2018-05-09T09:43:45.607Z,97375.78
2018-05-09T09:46:13.856Z,97374.89
2018-05-09T09:48:42.101Z,97375.73
2018-05-09T09:51:10.353Z,97371.28
2018-05-09T09:53:38.615Z,97368.20
2018-05-09T09:56:06.856Z,97362.63
2018-05-09T09:58:35.102Z,97353.36
2018-05-09T10:01:03.341Z,97361.58
2018-05-09T10:03:31.588Z,97360.52
2018-05-09T10:05:59.827Z,97369.88
2018-05-09T10:08:28.065Z,97355.95
2018-05-09T10:10:56.307Z,97354.77
2018-05-09T10:13:24.551Z,97348.45
2018-05-09T10:15:52.854Z,97348.41
2018-05-09T10:18:21.040Z,97344.59
2018-05-09T10:20:49.284Z,97349.09
2018-05-09T10:23:17.564Z,97347.17
2018-05-09T10:25:45.783Z,97346.04
2018-05-09T10:28:14.020Z,97336.64
2018-05-09T10:30:43.024Z,97343.23
2018-05-09T10:33:11.272Z,97336.14
2018-05-09T10:35:39.526Z,97337.69
2018-05-09T10:38:07.766Z,97332.28
2018-05-09T10:40:36.766Z,97326.49
2018-05-09T10:43:05.779Z,97328.65
2018-05-09T10:45:34.021Z,97317.26
2018-05-09T10:48:03.028Z,97321.33
2018-05-09T10:50:32.027Z,97320.20
2018-05-09T10:53:00.275Z,97316.99
2018-05-09T10:55:28.522Z,97316.78
2018-05-09T10:57:56.769Z,97313.59
2018-05-09T11:00:25.194Z,97303.41
2018-05-09T11:02:53.473Z,97309.11
2018-05-09T11:05:21.767Z,97306.78
2018-05-09T11:07:50.035Z,97314.21
2018-05-09T11:10:19.101Z,97307.52
2018-05-09T11:12:47.370Z,97294.58
2018-05-09T11:15:15.650Z,97295.70
2018-05-09T11:17:43.964Z,97290.08
2018-05-09T11:20:12.248Z,97292.90
2018-05-09T11:22:41.311Z,97289.50
2018-05-09T11:25:09.602Z,97286.16
2018-05-09T11:27:37.883Z,97279.69
2018-05-09T11:30:06.167Z,97285.86
2018-05-09T11:32:35.215Z,97281.76
2018-05-09T11:35:03.489Z,97280.73
2018-05-09T11:37:31.784Z,97274.84
2018-05-09T11:40:00.045Z,97265.35
2018-05-09T11:42:28.312Z,97272.16
2018-05-09T11:44:56.637Z,97269.71
2018-05-09T11:47:24.904Z,97266.56
2018-05-09T11:49:53.189Z,97268.09
2018-05-09T11:52:21.470Z,97265.03
2018-05-09T11:54:50.515Z,97263.05
2018-05-09T11:57:18.778Z,97265.68
2018-05-09T11:59:47.053Z,97254.10
2018-05-09T12:02:15.405Z,97256.13
2018-05-09T12:04:43.595Z,97262.42
2018-05-09T12:07:11.893Z,97267.66
2018-05-09T12:09:40.182Z,97262.00
2018-05-09T12:12:08.445Z,97260.89
2018-05-09T12:14:36.722Z,97269.41
2018-05-09T12:17:05.012Z,97259.92
2018-05-09T12:19:33.295Z,97262.14
2018-05-09T12:22:01.655Z,97257.87
2018-05-09T12:24:30.006Z,97248.56
2018-05-09T12:26:58.227Z,97256.04
2018-05-09T12:29:26.502Z,97252.73
2018-05-09T12:31:54.775Z,97245.03
2018-05-09T12:34:23.064Z,97246.75
2018-05-09T12:36:51.337Z,97244.16
2018-05-09T12:39:19.614Z,97240.63
2018-05-09T12:41:47.882Z,97236.97
2018-05-09T12:44:16.159Z,97236.42
2018-05-09T12:46:44.430Z,97229.14
2018-05-09T12:49:12.707Z,97218.59
2018-05-09T12:51:40.980Z,97215.45
2018-05-09T12:54:09.258Z,97216.45
2018-05-09T12:56:37.563Z,97215.41
2018-05-09T12:59:06.606Z,97209.84
2018-05-09T13:01:34.894Z,97211.97
2018-05-09T13:04:03.184Z,97207.16
2018-05-09T13:06:31.468Z,97206.20
2018-05-09T13:08:59.750Z,97213.57
2018-05-09T13:11:28.009Z,97202.30
2018-05-09T13:13:56.291Z,97190.63
2018-05-09T13:16:24.566Z,97190.84
2018-05-09T13:18:52.856Z,97194.11
2018-05-09T13:21:21.123Z,97189.05
2018-05-09T13:23:49.388Z,97186.90
2018-05-09T13:26:17.641Z,97179.80
2018-05-09T13:28:45.916Z,97176.41
2018-05-09T13:31:14.168Z,97175.77
2018-05-09T13:33:42.442Z,97171.57
2018-05-09T13:36:10.694Z,97171.83
2018-05-09T13:38:39.721Z,97174.38
2018-05-09T13:41:07.986Z,97172.38
2018-05-09T13:43:36.260Z,97165.34
2018-05-09T13:46:04.527Z,97171.20
2018-05-09T13:48:33.537Z,97167.02
2018-05-09T13:51:01.805Z,97163.30
2018-05-09T13:53:30.059Z,97168.97
2018-05-09T13:55:59.085Z,97153.38
2018-05-09T13:58:27.355Z,97149.81
2018-05-09T14:00:55.613Z,97147.86
2018-05-09T14:03:24.632Z,97150.86
2018-05-09T14:05:52.905Z,97152.23
2018-05-09T14:08:21.166Z,97151.34
2018-05-09T14:10:49.415Z,97143.85
2018-05-09T14:13:17.678Z,97140.68
2018-05-09T14:15:45.950Z,97140.20
2018-05-09T14:18:16.901Z,97129.56
2018-05-09T14:20:45.164Z,97127.25
2018-05-09T14:23:13.424Z,97124.44
2018-05-09T14:25:41.708Z,97120.11
2018-05-09T14:28:09.956Z,97120.71
2018-05-09T14:30:38.240Z,97121.16
2018-05-09T14:33:06.489Z,97118.20
2018-05-09T14:35:34.744Z,97114.46
2018-05-09T14:38:03.766Z,97114.49
2018-05-09T14:40:32.031Z,97110.98
2018-05-09T14:43:00.308Z,97100.40
2018-05-09T14:45:28.570Z,97102.06
2018-05-09T14:47:57.591Z,97105.09
2018-05-09T14:50:25.862Z,97097.63
2018-05-09T14:52:54.129Z,97096.00
2018-05-09T14:55:22.403Z,97103.16
2018-05-09T14:57:50.658Z,97105.48
2018-05-09T15:00:19.720Z,97102.59
2018-05-09T15:02:47.946Z,97095.77
2018-05-09T15:05:16.192Z,97096.96
2018-05-09T15:07:44.450Z,97099.55
2018-05-09T15:10:12.692Z,97095.51
2018-05-09T15:12:40.940Z,97101.44
2018-05-09T15:15:09.961Z,97092.25
2018-05-09T15:17:38.212Z,97092.56
2018-05-09T15:20:06.468Z,97090.63
2018-05-09T15:22:35.492Z,97088.87
2018-05-09T15:25:03.734Z,97092.25
2018-05-09T15:27:32.750Z,97086.80
2018-05-09T15:30:00.981Z,97089.71
2018-05-09T15:32:29.231Z,97085.95
2018-05-09T15:34:57.477Z,97084.02
2018-05-09T15:37:25.717Z,97078.44
2018-05-09T15:39:53.956Z,97077.14
2018-05-09T15:42:22.199Z,97067.97
2018-05-09T15:44:50.462Z,97079.06
2018-05-09T15:47:18.687Z,97075.20
2018-05-09T15:49:46.920Z,97078.36
2018-05-09T15:52:15.923Z,97069.54
2018-05-09T15:54:44.164Z,97071.59
2018-05-09T15:57:12.396Z,97072.28
2018-05-09T15:59:40.640Z,97069.52
2018-05-09T16:02:09.652Z,97075.53
2018-05-09T16:04:37.889Z,97084.73
2018-05-09T16:07:06.127Z,97072.97
2018-05-09T16:09:34.364Z,97075.63
2018-05-09T16:12:02.600Z,97073.75
2018-05-09T16:14:30.844Z,97075.92
2018-05-09T16:16:59.079Z,97077.15
2018-05-09T16:19:28.094Z,97073.81
2018-05-09T16:21:56.415Z,97075.96
2018-05-09T16:24:24.656Z,97062.16
2018-05-09T16:26:52.918Z,97062.66
2018-05-09T16:29:21.916Z,97061.77
2018-05-09T16:31:50.152Z,97065.36
2018-05-09T16:34:18.398Z,97065.55
2018-05-09T16:36:46.629Z,97063.95
2018-05-09T16:39:14.871Z,97057.39
2018-05-09T16:41:43.104Z,97061.55
2018-05-09T16:44:11.367Z,97060.75
2018-05-09T16:46:39.596Z,97062.03
2018-05-09T16:49:07.838Z,97055.73
2018-05-09T16:51:36.080Z,97053.77
2018-05-09T16:54:04.318Z,97055.17
2018-05-09T16:56:32.557Z,97058.23
2018-05-09T16:59:00.792Z,97062.09
2018-05-09T17:01:29.909Z,97069.64
2018-05-09T17:03:58.051Z,97069.42
2018-05-09T17:06:27.064Z,97083.94
2018-05-09T17:08:55.294Z,97085.77
2018-05-09T17:11:23.547Z,97086.62
2018-05-09T17:13:51.782Z,97083.39
2018-05-09T17:16:20.817Z,97079.95
2018-05-09T17:18:49.057Z,97072.42
2018-05-09T17:21:35.207Z,97074.82
2018-05-09T17:24:03.447Z,97084.63
2018-05-09T17:26:31.691Z,97085.81
2018-05-09T17:29:00.694Z,97085.64
2018-05-09T17:31:28.939Z,97082.34
2018-05-09T17:33:57.179Z,97079.78
2018-05-09T17:36:25.411Z,97087.31
2018-05-09T17:38:54.424Z,97087.52
2018-05-09T17:41:22.663Z,97092.74
2018-05-09T17:43:50.919Z,97094.09
2018-05-09T17:46:19.175Z,97102.51
2018-05-09T17:48:47.421Z,97116.75
2018-05-09T17:51:15.666Z,97141.83
2018-05-09T17:53:43.912Z,97156.42
2018-05-09T17:56:12.150Z,97155.12
2018-05-09T17:58:40.495Z,97177.42
2018-05-09T18:01:09.399Z,97177.69
2018-05-09T18:03:38.411Z,97179.25
2018-05-09T18:06:06.651Z,97175.34
2018-05-09T18:08:34.895Z,97163.88
2018-05-09T18:11:03.144Z,97155.91
2018-05-09T18:13:31.383Z,97149.87
2018-05-09T18:15:59.617Z,97153.62
2018-05-09T18:18:27.859Z,97135.91
2018-05-09T18:20:56.094Z,97139.75
2018-05-09T18:23:24.341Z,97137.11
2018-05-09T18:25:52.585Z,97137.61
2018-05-09T18:28:20.829Z,97145.08
2018-05-09T18:30:49.080Z,97135.94
2018-05-09T18:33:17.333Z,97134.34
2018-05-09T18:35:45.589Z,97131.72
2018-05-09T18:38:13.816Z,97129.31
2018-05-09T18:40:42.068Z,97121.11
2018-05-09T18:43:10.304Z,97118.45
2018-05-09T18:45:38.633Z,97116.43
2018-05-09T18:48:06.864Z,97115.84
2018-05-09T18:50:35.107Z,97113.73
2018-05-09T18:53:03.348Z,97105.14
2018-05-09T18:55:31.596Z,97106.99
2018-05-09T18:57:59.828Z,97102.88
2018-05-09T19:00:28.079Z,97099.59
2018-05-09T19:02:57.084Z,97104.09
2018-05-09T19:05:25.338Z,97109.25
2018-05-09T19:07:53.580Z,97114.81
2018-05-09T19:10:21.835Z,97118.03
2018-05-09T19:12:50.839Z,97129.34
2018-05-09T19:15:19.859Z,97130.34
2018-05-09T19:17:48.134Z,97141.55
2018-05-09T19:20:17.123Z,97154.82
2018-05-09T19:22:45.366Z,97172.90
2018-05-09T19:25:14.377Z,97174.09
2018-05-09T19:27:42.632Z,97161.30
2018-05-09T19:30:11.641Z,97173.36
2018-05-09T19:32:40.656Z,97185.87
2018-05-09T19:35:08.893Z,97185.16
2018-05-09T19:37:37.145Z,97182.91
2018-05-09T19:40:05.379Z,97184.16
2018-05-09T19:42:33.622Z,97186.26
2018-05-09T19:45:02.627Z,97187.75
2018-05-09T19:47:31.641Z,97190.36
2018-05-09T19:49:59.879Z,97177.19
2018-05-09T19:52:28.888Z,97178.62
2018-05-09T19:54:57.141Z,97178.20
2018-05-09T19:57:25.372Z,97183.59
2018-05-09T19:59:53.614Z,97187.63
2018-05-09T20:02:22.631Z,97194.72
2018-05-09T20:04:50.880Z,97192.83
2018-05-09T20:07:19.888Z,97193.96
2018-05-09T20:09:48.121Z,97191.34
2018-05-09T20:12:16.367Z,97190.67
2018-05-09T20:14:44.603Z,97185.69
2018-05-09T20:17:12.848Z,97194.22
2018-05-09T20:19:41.087Z,97198.42
2018-05-09T20:22:09.323Z,97205.38
2018-05-09T20:24:37.589Z,97206.78
2018-05-09T20:27:06.621Z,97212.45
2018-05-09T20:29:34.877Z,97204.22
2018-05-09T20:32:21.107Z,97201.89
2018-05-09T20:34:49.362Z,97195.50
2018-05-09T20:37:17.626Z,97191.70
2018-05-09T20:39:45.901Z,97190.98
2018-05-09T20:42:14.166Z,97185.45
2018-05-09T20:44:43.197Z,97178.23
2018-05-09T20:47:11.457Z,97179.95
2018-05-09T20:49:39.725Z,97172.92
2018-05-09T20:52:07.980Z,97173.49
2018-05-09T20:54:37.006Z,97166.80
2018-05-09T20:57:05.274Z,97168.22
2018-05-09T20:59:33.523Z,97175.27
2018-05-09T21:02:02.552Z,97182.73
2018-05-09T21:04:30.836Z,97186.38
2018-05-09T21:06:59.092Z,97190.80
2018-05-09T21:09:27.362Z,97194.08
2018-05-09T21:12:09.572Z,97206.60
2018-05-09T21:14:37.897Z,97205.77
2018-05-09T21:17:06.103Z,97215.05
2018-05-09T21:19:35.135Z,97215.80
2018-05-09T21:22:03.404Z,97217.94
2018-05-09T21:24:31.689Z,97203.55
2018-05-09T21:26:59.940Z,97209.44
2018-05-09T21:29:28.204Z,97209.44
2018-05-09T21:31:57.286Z,97214.27
2018-05-09T21:34:26.333Z,97212.41
2018-05-09T21:36:54.615Z,97210.58
2018-05-09T21:39:22.887Z,97211.45
2018-05-09T21:41:51.167Z,97211.87
2018-05-09T21:44:19.434Z,97204.52
2018-05-09T21:46:47.698Z,97209.69
2018-05-09T21:49:15.965Z,97211.20
2018-05-09T21:51:44.233Z,97208.82
2018-05-09T21:54:12.500Z,97214.80
2018-05-09T21:56:40.766Z,97210.04
2018-05-09T21:59:09.801Z,97205.27
2018-05-09T22:01:38.078Z,97213.14
2018-05-09T22:04:06.333Z,97208.84
2018-05-09T22:06:34.602Z,97216.42
2018-05-09T22:09:02.868Z,97207.82
2018-05-09T22:11:31.188Z,97207.86
2018-05-09T22:13:59.441Z,97207.70
2018-05-09T22:16:27.723Z,97204.93
2018-05-09T22:18:56.066Z,97206.47
2018-05-09T22:21:24.269Z,97203.58
2018-05-09T22:23:52.549Z,97204.97
2018-05-09T22:26:20.817Z,97202.01
2018-05-09T22:28:49.102Z,97203.28
2018-05-09T22:31:17.385Z,97195.73
2018-05-09T22:33:45.654Z,97196.94
2018-05-09T22:36:13.905Z,97201.19
2018-05-09T22:38:42.933Z,97199.08
2018-05-09T22:41:11.204Z,97198.63
2018-05-09T22:43:39.476Z,97194.15
2018-05-09T22:46:07.750Z,97194.99
2018-05-09T22:48:36.005Z,97191.22
2018-05-09T22:51:04.268Z,97197.63
2018-05-09T22:53:33.289Z,97190.67
2018-05-09T22:56:01.548Z,97189.02
2018-05-09T22:58:29.821Z,97184.20
2018-05-09T23:00:58.095Z,97179.20
2018-05-09T23:03:27.138Z,97172.38
2018-05-09T23:05:55.405Z,97170.89
2018-05-09T23:08:23.670Z,97170.91
2018-05-09T23:10:51.925Z,97164.39
2018-05-09T23:13:20.201Z,97162.84
2018-05-09T23:15:48.456Z,97164.83
2018-05-09T23:18:17.493Z,97168.81
2018-05-09T23:20:45.748Z,97160.78
2018-05-09T23:23:14.019Z,97162.02
2018-05-09T23:25:42.302Z,97158.23
2018-05-09T23:28:10.567Z,97154.17
2018-05-09T23:30:38.855Z,97162.69
2018-05-09T23:33:07.121Z,97154.40
2018-05-09T23:35:35.388Z,97152.58
2018-05-09T23:38:04.428Z,97143.25
2018-05-09T23:40:32.757Z,97146.80
2018-05-09T23:43:00.967Z,97145.22
2018-05-09T23:45:29.232Z,97149.00
2018-05-09T23:47:57.482Z,97141.98
2018-05-09T23:50:26.516Z,97140.33
2018-05-09T23:52:54.773Z,97149.45
2018-05-09T23:55:23.055Z,97143.08
2018-05-09T23:57:51.310Z,97137.23
